Main page
METAR-TAF:

METAR-TAF

Airports :

Blackpool Airport

Blackpool, England

latitude: 53-46N, longitude: 003-02W, elevation: 10 m

Current weather observation

The report was made 28 minutes ago, at 07:20 UTC
Wind 20 kt from the West/Southwest
Temperature 16°C
Humidity 72%
Pressure 998 hPa
Visibility 10 km or more
Few clouds at a height of 2200 ft

METAR: EGNH 180720Z 25020KT 9999 FEW022 16/11 Q0998

Time: 08:48 (07:48 UTC)

Forecast

The report was made 1 hour and 51 minutes ago, at 05:57 UTC
Forecast valid from 18 at 06 UTC to 18 at 15 UTC
Wind 15 kt from the West/Southwest
Visibility 10 km or more
Scattered clouds at a height of 2000 ft
Temporary
from 18 at 06 UTC to 18 at 15 UTC
Wind 20 kt from the West/Southwest with gusts up to 30 kt
Probability 30% :
Temporary
from 18 at 12 UTC to 18 at 15 UTC
Visibility: 7000 m
rain showers

TAF: EGNH 180557Z 1806/1815 24015KT 9999 SCT020 TEMPO 1806/1815 24020G30KT PROB30 TEMPO 1812/1815 7000 SHRA

Weather observations and forecasts of more than 4000 airports (METAR and TAF reports).

The available stations are represented by yellow and red dots on the map.

Hover mouse over dot to see the name of the station.

Then click to see weather observations and forecasts.

To change the map : click on the green buttons with a black cross to zoom in, on the green button with a dash to zoom out, or on the green arrows for adjacent maps.


METAR-TAF: